Seatac, WA

4:20 PM PDT en Octubre 30, 2014 (GMT -0700)
Seattle-Tacoma International | Change Station
CLOSE
Current Station
Aeropuerto
Location: Seattle,
Altura: 433 ft
Estaciones meteorológicas cercanas

Alt 433 ft 47.44 °N, 122.31 °W | Updated 27 minutes ago

Nublado
Nublado
58 ° F
Sensación térmica 58 ° F
N
0
Viento Variable Viento desde Norte

Hoy
Alta -- | Baja -- ° F
--% Posibilidad de precipitaciones
Ayer
Alta -- | Baja -- ° F
Precip. -- pul
7:50 AM 5:54 PM
Creciente, 48% visible
Presión 29.78 pul
Visibilidad 9.0 Millas
Nubes Baja 3000 ft
Muy nublado 4400 ft
Nublado 9500 ft
Punto de rocío 55 ° F
Humedad 90%
Precipitaciones 0.42 pul
Espesor de la nieve No disponible.
UV 0 de una escala de 12
Polen .30 de una escala de 12
Calidad del aire No disponible.
Flu Activity No disponible.
METAR KSEA 302253Z 00000KT 9SM FEW030 BKN044 OVC095 14/13 A2976 RMK AO2 RAE14 SLP084 P0000 T01440128

More Conditions Fewer Conditions

Presión 29.78 pul
Visibilidad 9.0 Millas
Nubes Baja 3000 ft
Muy nublado 4400 ft
Nublado 9500 ft
Punto de rocío 55 ° F
Humedad 90%
Precipitaciones 0.42 pul
Espesor de la nieve No disponible.
UV 0 de una escala de 12
Polen .30 de una escala de 12
Calidad del aire No disponible.
Flu Activity No disponible.
METAR KSEA 302253Z 00000KT 9SM FEW030 BKN044 OVC095 14/13 A2976 RMK AO2 RAE14 SLP084 P0000 T01440128

More Conditions Fewer Conditions

10-Day Weather Forecast

Almanac

Astronomía

Oct. 30, 2014 Salida Puesta
Hora real
Crepúsculo civil
Crepúsculo náutico
Crepúsculo astronómico
Luna
Horas de luz
Horas de luz
Tomorrow will be .
, % of the Moon is Illuminated

Extremos de hoy

Máximos del estado Bajos del estado

Community

WunderPhotos

Upload Photos

1,766,496 ¡fotos cargadas!

WunderBlogs® & News

Nearby

Calidad del aire

  Calidad del aire Índice AQ Contaminante
Not available.

Grosos de nieve

Estación Profundido Altura

Actividad de terremotos

Ciudad Distance Mag. Tiempo y dato
Magnitud mínima muestra es 2,5.

Temperaturas de aguas costeras

Lugar Temperatura

Estaciones meteorológicas cercanas